Skip Navigation LinksHome page > Weather > Current weather Skip Navigation Links

Current Weather

Central Park, New York

For information only: do not use for flight planning or navigation.
Latest weather
Observation time Friday, July 31, 2015 12:51 PM EDT
Local time Friday, July 31, 2015 1:23 PM EDT
Flight conditions Visual Meteorological Conditions
Winds
Wind direction variable
Wind speed 7 mph
Wind gusting to 17 mph
Visibility 10 mi.
Sky condition
Ceiling unlimited
Sky clear
Temperature 87°F
Dewpoint 57°F
Altimeter 29.89 in.Hg
Derived measurements
Relative humidity 36%
Heat index 87°F
Density altitude 2200 ft.
Sea-level pressure 29.86 in.Hg
Remarks
Fully automated report.
Automated weather observing station with precipitation discriminator.
METAR KNYC 311651Z AUTO VRB06G15KT 10SM CLR 31/14 A2989 RMK AO2 SLP111 T03060139

Settings

Location code

InnerDrive.Weather 4.0.5567.0 Release CLR 4.0.30319.34014
Copyright ©2015 Inner Drive Technology. All rights reserved. Portions Copyright ©1986-2015 David Braverman.

Find weather

Site navigation


Skip Navigation Links

Place info

Page info

PayPal - The safer, easier way to pay online!

Return home.

Copyright ©2015 Inner Drive Technology. Purveyors of fine, hand-crafted computer software. Page printed 2015-07-31T17:23:08 UTC.